sensor_id;sensor_type;location;lat;lon;timestamp;pressure;altitude;pressure_sealevel;temperature;humidity
7170;BME280;3626;42.656;23.312;2023-02-03T00:00:03;94761.38;;;1.20;91.84
7170;BME280;3626;42.656;23.312;2023-02-03T00:00:10;94761.38;;;1.20;91.96
7170;BME280;3626;42.656;23.312;2023-02-03T00:00:16;94762.97;;;1.21;91.97
7170;BME280;3626;42.656;23.312;2023-02-03T00:00:22;94760.44;;;1.21;92.04
7170;BME280;3626;42.656;23.312;2023-02-03T00:00:29;94752.94;;;1.19;91.88
7170;BME280;3626;42.656;23.312;2023-02-03T00:00:36;94762.38;;;1.17;92.03
7170;BME280;3626;42.656;23.312;2023-02-03T00:00:43;94759.94;;;1.16;91.64
7170;BME280;3626;42.656;23.312;2023-02-03T00:00:49;94760.88;;;1.15;92.05
7170;BME280;3626;42.656;23.312;2023-02-03T00:00:55;94761.78;;;1.14;92.33
7170;BME280;3626;42.656;23.312;2023-02-03T00:01:01;94760.88;;;1.15;92.10
7170;BME280;3626;42.656;23.312;2023-02-03T00:01:07;94752.41;;;1.14;92.39
7170;BME280;3626;42.656;23.312;2023-02-03T00:01:13;94755.78;;;1.15;92.47
7170;BME280;3626;42.656;23.312;2023-02-03T00:01:19;94756.69;;;1.14;92.60
7170;BME280;3626;42.656;23.312;2023-02-03T00:01:25;94755.78;;;1.15;92.44
7170;BME280;3626;42.656;23.312;2023-02-03T00:01:31;94760.88;;;1.15;92.73
7170;BME280;3626;42.656;23.312;2023-02-03T00:01:37;94759.13;;;1.15;92.54
7170;BME280;3626;42.656;23.312;2023-02-03T00:01:43;94759.22;;;1.14;92.72
7170;BME280;3626;42.656;23.312;2023-02-03T00:01:49;94768.59;;;1.13;92.72
7170;BME280;3626;42.656;23.312;2023-02-03T00:01:55;94764.31;;;1.14;92.84
7170;BME280;3626;42.656;23.312;2023-02-03T00:02:02;94756.69;;;1.14;92.93
7170;BME280;3626;42.656;23.312;2023-02-03T00:02:08;94764.31;;;1.14;92.81
7170;BME280;3626;42.656;23.312;2023-02-03T00:02:14;94760.03;;;1.14;93.15
7170;BME280;3626;42.656;23.312;2023-02-03T00:02:20;94765.97;;;1.15;93.13
7170;BME280;3626;42.656;23.312;2023-02-03T00:02:25;94760.88;;;1.15;93.27
7170;BME280;3626;42.656;23.312;2023-02-03T00:02:31;94758.22;;;1.16;93.13
7170;BME280;3626;42.656;23.312;2023-02-03T00:02:37;94759.13;;;1.15;92.78
7170;BME280;3626;42.656;23.312;2023-02-03T00:02:43;94761.69;;;1.15;93.15
7170;BME280;3626;42.656;23.312;2023-02-03T00:02:49;94760.75;;;1.16;93.19
7170;BME280;3626;42.656;23.312;2023-02-03T00:02:55;94759.03;;;1.17;93.41
7170;BME280;3626;42.656;23.312;2023-02-03T00:03:01;94760.75;;;1.16;93.00
7170;BME280;3626;42.656;23.312;2023-02-03T00:03:07;94759.03;;;1.17;93.25
7170;BME280;3626;42.656;23.312;2023-02-03T00:03:13;94752.31;;;1.16;93.21
7170;BME280;3626;42.656;23.312;2023-02-03T00:03:19;94756.59;;;1.15;93.25
7170;BME280;3626;42.656;23.312;2023-02-03T00:03:25;94757.41;;;1.16;93.26
7170;BME280;3626;42.656;23.312;2023-02-03T00:03:31;94757.41;;;1.16;93.42
7170;BME280;3626;42.656;23.312;2023-02-03T00:03:38;94763.31;;;1.16;93.46
7170;BME280;3626;42.656;23.312;2023-02-03T00:03:44;94752.31;;;1.16;93.52
7170;BME280;3626;42.656;23.312;2023-02-03T00:03:50;94760.88;;;1.15;93.59
7170;BME280;3626;42.656;23.312;2023-02-03T00:03:56;94756.59;;;1.15;93.84
7170;BME280;3626;42.656;23.312;2023-02-03T00:04:02;94756.59;;;1.15;93.31
7170;BME280;3626;42.656;23.312;2023-02-03T00:04:07;94760.75;;;1.16;93.99
7170;BME280;3626;42.656;23.312;2023-02-03T00:04:13;94759.03;;;1.17;93.77
7170;BME280;3626;42.656;23.312;2023-02-03T00:04:20;94758.22;;;1.16;93.84
7170;BME280;3626;42.656;23.312;2023-02-03T00:04:26;94760.63;;;1.18;93.72
7170;BME280;3626;42.656;23.312;2023-02-03T00:04:32;94759.03;;;1.17;93.81
7170;BME280;3626;42.656;23.312;2023-02-03T00:04:38;94759.84;;;1.17;94.06
7170;BME280;3626;42.656;23.312;2023-02-03T00:04:44;94757.28;;;1.17;94.05
7170;BME280;3626;42.656;23.312;2023-02-03T00:04:50;94753.94;;;1.17;93.98
7170;BME280;3626;42.656;23.312;2023-02-03T00:04:56;94759.03;;;1.17;94.06
7170;BME280;3626;42.656;23.312;2023-02-03T00:05:02;94752.31;;;1.16;93.98
7170;BME280;3626;42.656;23.312;2023-02-03T00:05:09;94758.22;;;1.16;94.35
7170;BME280;3626;42.656;23.312;2023-02-03T00:05:15;94745.63;;;1.15;94.43
7170;BME280;3626;42.656;23.312;2023-02-03T00:05:21;94761.69;;;1.15;94.31
7170;BME280;3626;42.656;23.312;2023-02-03T00:05:27;94753.34;;;1.13;94.28
7170;BME280;3626;42.656;23.312;2023-02-03T00:05:37;94759.22;;;1.14;94.32
7170;BME280;3626;42.656;23.312;2023-02-03T00:05:43;94758.34;;;1.15;94.50
7170;BME280;3626;42.656;23.312;2023-02-03T00:05:51;94754.94;;;1.14;94.74
7170;BME280;3626;42.656;23.312;2023-02-03T00:05:57;94763.41;;;1.15;94.83
7170;BME280;3626;42.656;23.312;2023-02-03T00:06:03;94755.06;;;1.13;94.73
7170;BME280;3626;42.656;23.312;2023-02-03T00:06:09;94760.97;;;1.13;94.63
7170;BME280;3626;42.656;23.312;2023-02-03T00:06:15;94756.81;;;1.12;94.83
7170;BME280;3626;42.656;23.312;2023-02-03T00:06:21;94759.47;;;1.11;94.90
7170;BME280;3626;42.656;23.312;2023-02-03T00:06:28;94752.66;;;1.11;95.17
7170;BME280;3626;42.656;23.312;2023-02-03T00:06:36;94749.28;;;1.11;95.12
7170;BME280;3626;42.656;23.312;2023-02-03T00:06:42;94745.91;;;1.10;95.12
7170;BME280;3626;42.656;23.312;2023-02-03T00:06:49;94749.38;;;1.09;94.89
7170;BME280;3626;42.656;23.312;2023-02-03T00:06:55;94753.78;;;1.07;95.08
7170;BME280;3626;42.656;23.312;2023-02-03T00:07:01;94754.59;;;1.08;95.16
7170;BME280;3626;42.656;23.312;2023-02-03T00:07:09;94753.66;;;1.09;95.29
7170;BME280;3626;42.656;23.312;2023-02-03T00:07:16;94759.66;;;1.08;95.13
7170;BME280;3626;42.656;23.312;2023-02-03T00:07:22;94749.59;;;1.06;95.42
7170;BME280;3626;42.656;23.312;2023-02-03T00:07:30;94757.13;;;1.08;95.57
7170;BME280;3626;42.656;23.312;2023-02-03T00:07:36;94750.41;;;1.07;95.60
7170;BME280;3626;42.656;23.312;2023-02-03T00:07:43;94748.69;;;1.07;95.84
7170;BME280;3626;42.656;23.312;2023-02-03T00:07:49;94752.13;;;1.06;96.00
7170;BME280;3626;42.656;23.312;2023-02-03T00:07:56;94758.03;;;1.07;95.81
7170;BME280;3626;42.656;23.312;2023-02-03T00:08:03;94756.41;;;1.06;95.92
7170;BME280;3626;42.656;23.312;2023-02-03T00:08:10;94757.22;;;1.06;95.90
7170;BME280;3626;42.656;23.312;2023-02-03T00:08:18;94752.13;;;1.06;96.01
7170;BME280;3626;42.656;23.312;2023-02-03T00:08:24;94753.84;;;1.06;96.06
7170;BME280;3626;42.656;23.312;2023-02-03T00:08:30;94757.31;;;1.05;95.73
7170;BME280;3626;42.656;23.312;2023-02-03T00:08:37;94762.28;;;1.06;95.99
7170;BME280;3626;42.656;23.312;2023-02-03T00:08:43;94754.78;;;1.05;95.83
7170;BME280;3626;42.656;23.312;2023-02-03T00:08:51;94759.06;;;1.04;95.99
7170;BME280;3626;42.656;23.312;2023-02-03T00:08:58;94757.31;;;1.05;96.30
7170;BME280;3626;42.656;23.312;2023-02-03T00:09:06;94757.31;;;1.05;96.21
7170;BME280;3626;42.656;23.312;2023-02-03T00:09:12;94753.16;;;1.04;96.14
7170;BME280;3626;42.656;23.312;2023-02-03T00:09:19;94754.09;;;1.03;96.32
7170;BME280;3626;42.656;23.312;2023-02-03T00:09:25;94754.97;;;1.02;96.57
7170;BME280;3626;42.656;23.312;2023-02-03T00:09:34;94759.19;;;1.03;96.00
7170;BME280;3626;42.656;23.312;2023-02-03T00:09:40;94758.25;;;1.04;96.45
7170;BME280;3626;42.656;23.312;2023-02-03T00:09:46;94754.91;;;1.03;96.74
7170;BME280;3626;42.656;23.312;2023-02-03T00:09:52;94758.25;;;1.04;96.72
7170;BME280;3626;42.656;23.312;2023-02-03T00:09:59;94761.59;;;1.04;96.75
7170;BME280;3626;42.656;23.312;2023-02-03T00:10:06;94754.78;;;1.05;96.81
7170;BME280;3626;42.656;23.312;2023-02-03T00:10:12;94754.78;;;1.05;96.56
7170;BME280;3626;42.656;23.312;2023-02-03T00:10:19;94761.59;;;1.04;96.70
7170;BME280;3626;42.656;23.312;2023-02-03T00:10:25;94754.91;;;1.03;97.06
7170;BME280;3626;42.656;23.312;2023-02-03T00:10:32;94759.19;;;1.03;96.94
7170;BME280;3626;42.656;23.312;2023-02-03T00:10:39;94758.38;;;1.02;96.76
7170;BME280;3626;42.656;23.312;2023-02-03T00:10:45;94759.25;;;1.01;96.79
7170;BME280;3626;42.656;23.312;2023-02-03T00:10:53;94756.84;;;0.99;96.83
7170;BME280;3626;42.656;23.312;2023-02-03T00:11:01;94755.22;;;0.98;97.18
7170;BME280;3626;42.656;23.312;2023-02-03T00:11:07;94767.91;;;0.98;96.73
7170;BME280;3626;42.656;23.312;2023-02-03T00:11:13;94762.03;;;0.98;96.71
7170;BME280;3626;42.656;23.312;2023-02-03T00:11:19;94761.19;;;0.97;96.97
7170;BME280;3626;42.656;23.312;2023-02-03T00:11:25;94753.56;;;0.97;96.76
7170;BME280;3626;42.656;23.312;2023-02-03T00:11:31;94756.22;;;0.96;96.80
7170;BME280;3626;42.656;23.312;2023-02-03T00:11:39;94753.81;;;0.94;96.80
7170;BME280;3626;42.656;23.312;2023-02-03T00:11:45;94758.75;;;0.96;96.75
7170;BME280;3626;42.656;23.312;2023-02-03T00:11:51;94757.16;;;0.95;96.78
7170;BME280;3626;42.656;23.312;2023-02-03T00:11:58;94754.59;;;0.95;97.11
7170;BME280;3626;42.656;23.312;2023-02-03T00:12:04;94753.88;;;0.93;96.78
7170;BME280;3626;42.656;23.312;2023-02-03T00:12:10;94756.44;;;0.93;96.71
7170;BME280;3626;42.656;23.312;2023-02-03T00:12:18;94756.44;;;0.93;96.77
7170;BME280;3626;42.656;23.312;2023-02-03T00:12:24;94762.31;;;0.93;96.77
7170;BME280;3626;42.656;23.312;2023-02-03T00:12:30;94757.22;;;0.93;96.81
7170;BME280;3626;42.656;23.312;2023-02-03T00:12:35;94748.00;;;0.92;96.87
7170;BME280;3626;42.656;23.312;2023-02-03T00:12:43;94752.38;;;0.90;97.09
7170;BME280;3626;42.656;23.312;2023-02-03T00:12:50;94753.19;;;0.91;96.96
7170;BME280;3626;42.656;23.312;2023-02-03T00:12:57;94754.13;;;0.90;96.89
7170;BME280;3626;42.656;23.312;2023-02-03T00:13:03;94755.84;;;0.89;96.57
7170;BME280;3626;42.656;23.312;2023-02-03T00:13:09;94750.03;;;0.87;96.90
7170;BME280;3626;42.656;23.312;2023-02-03T00:13:15;94753.50;;;0.86;96.98
7170;BME280;3626;42.656;23.312;2023-02-03T00:13:21;94752.69;;;0.86;96.91
7170;BME280;3626;42.656;23.312;2023-02-03T00:13:28;94756.97;;;0.85;96.96
7170;BME280;3626;42.656;23.312;2023-02-03T00:13:35;94768.84;;;0.85;97.39
7170;BME280;3626;42.656;23.312;2023-02-03T00:13:41;94768.03;;;0.84;97.31
7170;BME280;3626;42.656;23.312;2023-02-03T00:13:50;94762.94;;;0.84;97.40
7170;BME280;3626;42.656;23.312;2023-02-03T00:13:56;94760.41;;;0.84;97.25
7170;BME280;3626;42.656;23.312;2023-02-03T00:14:02;94766.28;;;0.85;97.46
7170;BME280;3626;42.656;23.312;2023-02-03T00:14:09;94751.91;;;0.85;97.24
7170;BME280;3626;42.656;23.312;2023-02-03T00:14:15;94758.59;;;0.86;97.62
7170;BME280;3626;42.656;23.312;2023-02-03T00:14:21;94765.41;;;0.86;97.56
7170;BME280;3626;42.656;23.312;2023-02-03T00:14:27;94759.50;;;0.85;97.59
7170;BME280;3626;42.656;23.312;2023-02-03T00:14:33;94756.97;;;0.85;97.54
7170;BME280;3626;42.656;23.312;2023-02-03T00:14:39;94762.06;;;0.85;97.33
7170;BME280;3626;42.656;23.312;2023-02-03T00:14:45;94767.94;;;0.86;97.65
7170;BME280;3626;42.656;23.312;2023-02-03T00:14:51;94767.94;;;0.86;97.64
7170;BME280;3626;42.656;23.312;2023-02-03T00:14:56;94765.41;;;0.86;97.61
7170;BME280;3626;42.656;23.312;2023-02-03T00:15:06;94763.66;;;0.86;97.48
7170;BME280;3626;42.656;23.312;2023-02-03T00:15:12;94763.66;;;0.86;97.71
7170;BME280;3626;42.656;23.312;2023-02-03T00:15:18;94767.03;;;0.87;97.71
7170;BME280;3626;42.656;23.312;2023-02-03T00:15:24;94770.47;;;0.86;97.82
7170;BME280;3626;42.656;23.312;2023-02-03T00:15:31;94768.75;;;0.86;97.83
7170;BME280;3626;42.656;23.312;2023-02-03T00:15:40;94765.28;;;0.87;97.89
7170;BME280;3626;42.656;23.312;2023-02-03T00:15:46;94764.47;;;0.87;97.45
7170;BME280;3626;42.656;23.312;2023-02-03T00:15:52;94771.19;;;0.88;97.91
7170;BME280;3626;42.656;23.312;2023-02-03T00:15:58;94766.09;;;0.88;97.79
7170;BME280;3626;42.656;23.312;2023-02-03T00:16:06;94771.19;;;0.88;97.86
7170;BME280;3626;42.656;23.312;2023-02-03T00:16:12;94770.38;;;0.87;97.75
7170;BME280;3626;42.656;23.312;2023-02-03T00:16:18;94770.38;;;0.87;97.83
7170;BME280;3626;42.656;23.312;2023-02-03T00:16:24;94772.91;;;0.87;97.84
7170;BME280;3626;42.656;23.312;2023-02-03T00:16:30;94764.47;;;0.87;98.04
7170;BME280;3626;42.656;23.312;2023-02-03T00:16:38;94772.91;;;0.87;98.14
7170;BME280;3626;42.656;23.312;2023-02-03T00:16:44;94759.41;;;0.87;98.02
7170;BME280;3626;42.656;23.312;2023-02-03T00:16:50;94772.91;;;0.87;97.89
7170;BME280;3626;42.656;23.312;2023-02-03T00:16:56;94767.81;;;0.87;98.03
7170;BME280;3626;42.656;23.312;2023-02-03T00:17:02;94771.28;;;0.86;97.94
7170;BME280;3626;42.656;23.312;2023-02-03T00:17:08;94772.22;;;0.85;97.88
7170;BME280;3626;42.656;23.312;2023-02-03T00:17:19;94777.28;;;0.85;98.14
7170;BME280;3626;42.656;23.312;2023-02-03T00:17:25;94774.75;;;0.85;98.31
7170;BME280;3626;42.656;23.312;2023-02-03T00:17:31;94773.09;;;0.84;98.23
7170;BME280;3626;42.656;23.312;2023-02-03T00:17:37;94766.28;;;0.85;98.43
7170;BME280;3626;42.656;23.312;2023-02-03T00:17:43;94768.84;;;0.85;98.55
7170;BME280;3626;42.656;23.312;2023-02-03T00:17:49;94771.50;;;0.83;98.34
7170;BME280;3626;42.656;23.312;2023-02-03T00:17:55;94769.88;;;0.82;98.32
7170;BME280;3626;42.656;23.312;2023-02-03T00:18:01;94774.94;;;0.82;98.81
7170;BME280;3626;42.656;23.312;2023-02-03T00:18:07;94781.66;;;0.83;98.48
7170;BME280;3626;42.656;23.312;2023-02-03T00:18:13;94774.03;;;0.83;98.92
7170;BME280;3626;42.656;23.312;2023-02-03T00:18:19;94772.31;;;0.84;98.60
7170;BME280;3626;42.656;23.312;2023-02-03T00:18:25;94776.56;;;0.83;98.43
7170;BME280;3626;42.656;23.312;2023-02-03T00:18:31;94771.38;;;0.85;98.82
7170;BME280;3626;42.656;23.312;2023-02-03T00:18:37;94770.69;;;0.83;98.72
7170;BME280;3626;42.656;23.312;2023-02-03T00:18:45;94774.03;;;0.83;98.75
7170;BME280;3626;42.656;23.312;2023-02-03T00:18:51;94777.50;;;0.82;98.89
7170;BME280;3626;42.656;23.312;2023-02-03T00:18:57;94777.50;;;0.82;98.87
7170;BME280;3626;42.656;23.312;2023-02-03T00:19:03;94772.41;;;0.82;98.94
7170;BME280;3626;42.656;23.312;2023-02-03T00:19:09;94773.34;;;0.81;98.99
7170;BME280;3626;42.656;23.312;2023-02-03T00:19:15;94769.06;;;0.82;98.84
7170;BME280;3626;42.656;23.312;2023-02-03T00:19:21;94767.34;;;0.82;98.96
7170;BME280;3626;42.656;23.312;2023-02-03T00:19:27;94772.41;;;0.82;98.85
7170;BME280;3626;42.656;23.312;2023-02-03T00:19:33;94773.09;;;0.84;99.02
7170;BME280;3626;42.656;23.312;2023-02-03T00:19:39;94768.03;;;0.84;98.90
7170;BME280;3626;42.656;23.312;2023-02-03T00:19:44;94772.22;;;0.85;99.01
7170;BME280;3626;42.656;23.312;2023-02-03T00:19:50;94770.47;;;0.86;99.05
7170;BME280;3626;42.656;23.312;2023-02-03T00:19:56;94770.47;;;0.86;99.14
7170;BME280;3626;42.656;23.312;2023-02-03T00:20:03;94770.47;;;0.86;99.03
7170;BME280;3626;42.656;23.312;2023-02-03T00:20:10;94766.22;;;0.86;98.76
7170;BME280;3626;42.656;23.312;2023-02-03T00:20:16;94772.91;;;0.87;98.95
7170;BME280;3626;42.656;23.312;2023-02-03T00:20:22;94772.22;;;0.85;99.07
7170;BME280;3626;42.656;23.312;2023-02-03T00:20:31;94767.94;;;0.86;99.07
7170;BME280;3626;42.656;23.312;2023-02-03T00:20:37;94768.03;;;0.84;98.97
7170;BME280;3626;42.656;23.312;2023-02-03T00:20:43;94768.94;;;0.83;99.45
7170;BME280;3626;42.656;23.312;2023-02-03T00:20:49;94762.94;;;0.84;99.29
7170;BME280;3626;42.656;23.312;2023-02-03T00:20:55;94766.28;;;0.85;99.19
7170;BME280;3626;42.656;23.312;2023-02-03T00:21:01;94765.50;;;0.84;98.91
7170;BME280;3626;42.656;23.312;2023-02-03T00:21:07;94770.56;;;0.84;99.24
7170;BME280;3626;42.656;23.312;2023-02-03T00:21:13;94771.28;;;0.86;99.31
7170;BME280;3626;42.656;23.312;2023-02-03T00:21:19;94771.50;;;0.83;99.28
7170;BME280;3626;42.656;23.312;2023-02-03T00:21:27;94773.09;;;0.84;99.18
7170;BME280;3626;42.656;23.312;2023-02-03T00:21:33;94769.69;;;0.85;99.38
7170;BME280;3626;42.656;23.312;2023-02-03T00:21:39;94773.84;;;0.86;99.40
7170;BME280;3626;42.656;23.312;2023-02-03T00:21:44;94771.28;;;0.86;99.52
7170;BME280;3626;42.656;23.312;2023-02-03T00:21:50;94778.00;;;0.87;99.58
7170;BME280;3626;42.656;23.312;2023-02-03T00:21:56;94769.56;;;0.87;99.54
7170;BME280;3626;42.656;23.312;2023-02-03T00:22:02;94776.38;;;0.86;99.57
7170;BME280;3626;42.656;23.312;2023-02-03T00:22:08;94769.69;;;0.85;99.38
7170;BME280;3626;42.656;23.312;2023-02-03T00:22:14;94768.75;;;0.86;99.68
7170;BME280;3626;42.656;23.312;2023-02-03T00:22:20;94773.03;;;0.86;99.75
7170;BME280;3626;42.656;23.312;2023-02-03T00:22:26;94773.91;;;0.85;99.84
7170;BME280;3626;42.656;23.312;2023-02-03T00:22:36;94767.22;;;0.84;99.76
7170;BME280;3626;42.656;23.312;2023-02-03T00:22:42;94764.69;;;0.84;99.70
7170;BME280;3626;42.656;23.312;2023-02-03T00:22:47;94772.31;;;0.84;99.67
7170;BME280;3626;42.656;23.312;2023-02-03T00:22:53;94775.75;;;0.83;100.00
7170;BME280;3626;42.656;23.312;2023-02-03T00:23:04;94766.53;;;0.82;99.93
7170;BME280;3626;42.656;23.312;2023-02-03T00:23:11;94771.69;;;0.80;100.00
7170;BME280;3626;42.656;23.312;2023-02-03T00:23:17;94769.16;;;0.80;100.00
7170;BME280;3626;42.656;23.312;2023-02-03T00:23:23;94768.34;;;0.80;100.00
7170;BME280;3626;42.656;23.312;2023-02-03T00:23:30;94765.81;;;0.80;100.00
7170;BME280;3626;42.656;23.312;2023-02-03T00:23:37;94775.97;;;0.80;100.00
7170;BME280;3626;42.656;23.312;2023-02-03T00:23:43;94769.97;;;0.81;100.00
7170;BME280;3626;42.656;23.312;2023-02-03T00:23:49;94771.69;;;0.80;100.00
7170;BME280;3626;42.656;23.312;2023-02-03T00:23:55;94765.72;;;0.81;100.00
7170;BME280;3626;42.656;23.312;2023-02-03T00:24:01;94766.59;;;0.80;100.00
7170;BME280;3626;42.656;23.312;2023-02-03T00:24:07;94771.69;;;0.80;100.00
7170;BME280;3626;42.656;23.312;2023-02-03T00:24:13;94772.50;;;0.81;100.00
7170;BME280;3626;42.656;23.312;2023-02-03T00:24:19;94771.69;;;0.80;100.00
7170;BME280;3626;42.656;23.312;2023-02-03T00:24:28;94776.78;;;0.80;100.00
7170;BME280;3626;42.656;23.312;2023-02-03T00:24:34;94777.56;;;0.81;100.00
7170;BME280;3626;42.656;23.312;2023-02-03T00:24:40;94764.06;;;0.80;100.00
7170;BME280;3626;42.656;23.312;2023-02-03T00:24:46;94776.78;;;0.80;100.00
7170;BME280;3626;42.656;23.312;2023-02-03T00:24:52;94769.16;;;0.80;100.00
7170;BME280;3626;42.656;23.312;2023-02-03T00:24:58;94767.53;;;0.79;100.00
7170;BME280;3626;42.656;23.312;2023-02-03T00:25:05;94774.34;;;0.79;100.00
7170;BME280;3626;42.656;23.312;2023-02-03T00:25:11;94773.53;;;0.78;100.00
7170;BME280;3626;42.656;23.312;2023-02-03T00:25:17;94773.53;;;0.78;100.00
7170;BME280;3626;42.656;23.312;2023-02-03T00:25:24;94770.19;;;0.78;100.00
7170;BME280;3626;42.656;23.312;2023-02-03T00:25:30;94764.19;;;0.79;100.00
7170;BME280;3626;42.656;23.312;2023-02-03T00:25:38;94767.66;;;0.78;100.00
7170;BME280;3626;42.656;23.312;2023-02-03T00:25:44;94769.47;;;0.75;100.00
7170;BME280;3626;42.656;23.312;2023-02-03T00:25:51;94766.91;;;0.75;100.00
7170;BME280;3626;42.656;23.312;2023-02-03T00:25:57;94771.09;;;0.77;100.00
7170;BME280;3626;42.656;23.312;2023-02-03T00:26:07;94769.47;;;0.75;100.00
7170;BME280;3626;42.656;23.312;2023-02-03T00:26:16;94764.38;;;0.75;100.00
7170;BME280;3626;42.656;23.312;2023-02-03T00:26:24;94766.91;;;0.75;100.00
7170;BME280;3626;42.656;23.312;2023-02-03T00:26:33;94769.38;;;0.77;100.00
7170;BME280;3626;42.656;23.312;2023-02-03T00:26:40;94769.47;;;0.75;100.00
7170;BME280;3626;42.656;23.312;2023-02-03T00:26:47;94765.31;;;0.74;100.00
7170;BME280;3626;42.656;23.312;2023-02-03T00:26:53;94765.41;;;0.73;100.00
7170;BME280;3626;42.656;23.312;2023-02-03T00:26:58;94767.03;;;0.74;100.00
7170;BME280;3626;42.656;23.312;2023-02-03T00:27:06;94762.88;;;0.73;100.00
7170;BME280;3626;42.656;23.312;2023-02-03T00:27:12;94762.88;;;0.73;100.00
7170;BME280;3626;42.656;23.312;2023-02-03T00:27:21;94766.22;;;0.73;100.00
7170;BME280;3626;42.656;23.312;2023-02-03T00:27:27;94765.41;;;0.73;100.00
7170;BME280;3626;42.656;23.312;2023-02-03T00:27:33;94765.41;;;0.73;100.00
7170;BME280;3626;42.656;23.312;2023-02-03T00:27:39;94771.31;;;0.73;100.00
7170;BME280;3626;42.656;23.312;2023-02-03T00:27:46;94770.69;;;0.70;100.00
7170;BME280;3626;42.656;23.312;2023-02-03T00:27:52;94774.16;;;0.69;100.00
7170;BME280;3626;42.656;23.312;2023-02-03T00:28:00;94769.88;;;0.69;100.00
7170;BME280;3626;42.656;23.312;2023-02-03T00:28:06;94773.25;;;0.70;100.00
7170;BME280;3626;42.656;23.312;2023-02-03T00:28:12;94771.63;;;0.69;100.00
7170;BME280;3626;42.656;23.312;2023-02-03T00:28:18;94770.81;;;0.68;100.00
7170;BME280;3626;42.656;23.312;2023-02-03T00:28:24;94765.72;;;0.68;100.00
7170;BME280;3626;42.656;23.312;2023-02-03T00:28:34;94770.09;;;0.66;100.00
7170;BME280;3626;42.656;23.312;2023-02-03T00:28:43;94768.34;;;0.67;100.00
7170;BME280;3626;42.656;23.312;2023-02-03T00:28:49;94770.88;;;0.67;100.00
7170;BME280;3626;42.656;23.312;2023-02-03T00:28:57;94770.88;;;0.67;100.00
7170;BME280;3626;42.656;23.312;2023-02-03T00:29:03;94773.44;;;0.67;100.00
7170;BME280;3626;42.656;23.312;2023-02-03T00:29:09;94775.88;;;0.68;100.00
7170;BME280;3626;42.656;23.312;2023-02-03T00:29:15;94779.25;;;0.69;100.00
7170;BME280;3626;42.656;23.312;2023-02-03T00:29:23;94764.00;;;0.69;100.00
7170;BME280;3626;42.656;23.312;2023-02-03T00:29:30;94775.78;;;0.70;100.00
7170;BME280;3626;42.656;23.312;2023-02-03T00:29:36;94761.47;;;0.69;100.00
7170;BME280;3626;42.656;23.312;2023-02-03T00:29:42;94775.78;;;0.70;100.00
7170;BME280;3626;42.656;23.312;2023-02-03T00:29:48;94770.69;;;0.70;100.00
7170;BME280;3626;42.656;23.312;2023-02-03T00:29:54;94770.69;;;0.70;100.00
7170;BME280;3626;42.656;23.312;2023-02-03T00:30:03;94767.34;;;0.69;100.00
7170;BME280;3626;42.656;23.312;2023-02-03T00:30:10;94768.97;;;0.70;100.00
7170;BME280;3626;42.656;23.312;2023-02-03T00:30:16;94768.16;;;0.70;100.00
7170;BME280;3626;42.656;23.312;2023-02-03T00:30:22;94774.97;;;0.69;100.00
7170;BME280;3626;42.656;23.312;2023-02-03T00:30:28;94769.88;;;0.69;100.00
7170;BME280;3626;42.656;23.312;2023-02-03T00:30:35;94776.69;;;0.69;100.00
7170;BME280;3626;42.656;23.312;2023-02-03T00:30:41;94777.59;;;0.68;100.00
7170;BME280;3626;42.656;23.312;2023-02-03T00:30:47;94765.72;;;0.68;100.00
7170;BME280;3626;42.656;23.312;2023-02-03T00:30:53;94776.69;;;0.69;100.00
7170;BME280;3626;42.656;23.312;2023-02-03T00:30:59;94769.88;;;0.69;100.00
7170;BME280;3626;42.656;23.312;2023-02-03T00:31:05;94771.63;;;0.69;100.00
7170;BME280;3626;42.656;23.312;2023-02-03T00:31:15;94779.31;;;0.67;100.00
7170;BME280;3626;42.656;23.312;2023-02-03T00:31:22;94777.59;;;0.68;100.00
7170;BME280;3626;42.656;23.312;2023-02-03T00:31:31;94775.88;;;0.68;100.00
7170;BME280;3626;42.656;23.312;2023-02-03T00:31:37;94779.31;;;0.67;100.00
7170;BME280;3626;42.656;23.312;2023-02-03T00:31:43;94775.88;;;0.68;100.00
7170;BME280;3626;42.656;23.312;2023-02-03T00:31:49;94779.25;;;0.69;100.00
7170;BME280;3626;42.656;23.312;2023-02-03T00:31:55;94774.16;;;0.69;100.00
7170;BME280;3626;42.656;23.312;2023-02-03T00:32:03;94776.59;;;0.70;100.00
7170;BME280;3626;42.656;23.312;2023-02-03T00:32:09;94769.06;;;0.69;100.00
7170;BME280;3626;42.656;23.312;2023-02-03T00:32:15;94768.16;;;0.70;100.00
7170;BME280;3626;42.656;23.312;2023-02-03T00:32:21;94776.59;;;0.70;100.00
7170;BME280;3626;42.656;23.312;2023-02-03T00:32:27;94776.59;;;0.70;100.00
7170;BME280;3626;42.656;23.312;2023-02-03T00:32:33;94774.03;;;0.70;100.00
7170;BME280;3626;42.656;23.312;2023-02-03T00:32:39;94768.84;;;0.72;100.00
7170;BME280;3626;42.656;23.312;2023-02-03T00:32:45;94768.97;;;0.70;100.00
7170;BME280;3626;42.656;23.312;2023-02-03T00:32:51;94773.94;;;0.72;100.00
7170;BME280;3626;42.656;23.312;2023-02-03T00:32:57;94775.78;;;0.70;100.00
7170;BME280;3626;42.656;23.312;2023-02-03T00:33:04;94765.63;;;0.70;100.00
7170;BME280;3626;42.656;23.312;2023-02-03T00:33:10;94764.00;;;0.69;100.00
7170;BME280;3626;42.656;23.312;2023-02-03T00:33:16;94765.72;;;0.68;100.00
7170;BME280;3626;42.656;23.312;2023-02-03T00:33:22;94764.88;;;0.68;100.00
7170;BME280;3626;42.656;23.312;2023-02-03T00:33:28;94767.34;;;0.69;100.00
7170;BME280;3626;42.656;23.312;2023-02-03T00:33:34;94764.81;;;0.69;100.00
7170;BME280;3626;42.656;23.312;2023-02-03T00:33:39;94765.72;;;0.68;100.00
7170;BME280;3626;42.656;23.312;2023-02-03T00:33:46;94761.47;;;0.69;100.00
7170;BME280;3626;42.656;23.312;2023-02-03T00:33:55;94763.19;;;0.68;100.00
7170;BME280;3626;42.656;23.312;2023-02-03T00:34:01;94767.44;;;0.68;100.00
7170;BME280;3626;42.656;23.312;2023-02-03T00:34:07;94772.50;;;0.68;100.00
7170;BME280;3626;42.656;23.312;2023-02-03T00:34:15;94771.69;;;0.67;100.00
7170;BME280;3626;42.656;23.312;2023-02-03T00:34:21;94766.63;;;0.67;100.00
7170;BME280;3626;42.656;23.312;2023-02-03T00:34:27;94775.88;;;0.68;100.00
7170;BME280;3626;42.656;23.312;2023-02-03T00:34:34;94767.53;;;0.66;100.00
7170;BME280;3626;42.656;23.312;2023-02-03T00:34:40;94764.19;;;0.66;100.00
7170;BME280;3626;42.656;23.312;2023-02-03T00:34:46;94765.94;;;0.65;100.00
7170;BME280;3626;42.656;23.312;2023-02-03T00:34:52;94766.72;;;0.66;100.00
7170;BME280;3626;42.656;23.312;2023-02-03T00:34:57;94770.88;;;0.67;100.00
7170;BME280;3626;42.656;23.312;2023-02-03T00:35:04;94775.16;;;0.66;100.00